sensor_id;sensor_type;location;lat;lon;timestamp;pressure;altitude;pressure_sealevel;temperature;humidity
61109;BME280;46995;55.740;37.402;2023-09-19T00:01:28;100018.00;;;11.04;83.84
61109;BME280;46995;55.740;37.402;2023-09-19T00:03:55;100019.19;;;11.12;83.88
61109;BME280;46995;55.740;37.402;2023-09-19T00:06:22;100022.06;;;11.20;83.98
61109;BME280;46995;55.740;37.402;2023-09-19T00:08:51;100012.91;;;11.24;83.64
61109;BME280;46995;55.740;37.402;2023-09-19T00:11:17;100010.97;;;11.26;83.61
61109;BME280;46995;55.740;37.402;2023-09-19T00:13:42;100007.38;;;11.27;83.65
61109;BME280;46995;55.740;37.402;2023-09-19T00:16:09;100015.31;;;11.27;83.54
61109;BME280;46995;55.740;37.402;2023-09-19T00:18:36;100019.63;;;11.28;83.60
61109;BME280;46995;55.740;37.402;2023-09-19T00:21:03;100021.31;;;11.29;83.50
61109;BME280;46995;55.740;37.402;2023-09-19T00:23:30;100016.88;;;11.29;83.62
61109;BME280;46995;55.740;37.402;2023-09-19T00:26:00;100017.72;;;11.30;83.64
61109;BME280;46995;55.740;37.402;2023-09-19T00:28:26;100018.41;;;11.32;83.54
61109;BME280;46995;55.740;37.402;2023-09-19T00:30:52;100013.00;;;11.33;83.57
61109;BME280;46995;55.740;37.402;2023-09-19T00:33:19;100018.88;;;11.37;83.73
61109;BME280;46995;55.740;37.402;2023-09-19T00:35:49;100021.97;;;11.42;83.81
61109;BME280;46995;55.740;37.402;2023-09-19T00:38:16;100016.19;;;11.48;83.71
61109;BME280;46995;55.740;37.402;2023-09-19T00:40:44;100017.63;;;11.52;83.84
61109;BME280;46995;55.740;37.402;2023-09-19T00:43:10;100023.25;;;11.59;83.79
61109;BME280;46995;55.740;37.402;2023-09-19T00:45:36;100016.72;;;11.63;83.72
61109;BME280;46995;55.740;37.402;2023-09-19T00:48:03;100011.31;;;11.64;83.51
61109;BME280;46995;55.740;37.402;2023-09-19T00:50:38;100016.34;;;11.67;83.64
61109;BME280;46995;55.740;37.402;2023-09-19T00:53:07;100011.78;;;11.69;83.43
61109;BME280;46995;55.740;37.402;2023-09-19T00:55:33;100015.16;;;11.71;83.61
61109;BME280;46995;55.740;37.402;2023-09-19T00:57:59;100012.50;;;11.71;83.55
61109;BME280;46995;55.740;37.402;2023-09-19T01:00:25;100010.81;;;11.70;83.38
61109;BME280;46995;55.740;37.402;2023-09-19T01:02:51;100014.44;;;11.69;83.55
61109;BME280;46995;55.740;37.402;2023-09-19T01:05:16;100009.25;;;11.68;83.59
61109;BME280;46995;55.740;37.402;2023-09-19T01:07:42;100009.75;;;11.73;83.68
61109;BME280;46995;55.740;37.402;2023-09-19T01:10:13;100012.03;;;11.77;83.72
61109;BME280;46995;55.740;37.402;2023-09-19T01:20:37;100019.97;;;11.98;83.68
61109;BME280;46995;55.740;37.402;2023-09-19T01:23:14;100016.09;;;12.02;83.79
61109;BME280;46995;55.740;37.402;2023-09-19T01:31:15;100006.41;;;12.12;83.65
61109;BME280;46995;55.740;37.402;2023-09-19T01:34:00;100008.34;;;12.10;83.83
61109;BME280;46995;55.740;37.402;2023-09-19T01:36:31;99998.00;;;12.07;83.55
61109;BME280;46995;55.740;37.402;2023-09-19T01:38:59;100003.69;;;12.03;83.59
61109;BME280;46995;55.740;37.402;2023-09-19T01:41:48;99999.03;;;11.95;83.58
61109;BME280;46995;55.740;37.402;2023-09-19T01:44:25;99999.81;;;11.86;83.94
61109;BME280;46995;55.740;37.402;2023-09-19T01:46:56;99998.81;;;11.77;84.03
61109;BME280;46995;55.740;37.402;2023-09-19T01:52:13;99986.56;;;11.65;84.14
61109;BME280;46995;55.740;37.402;2023-09-19T01:54:45;99984.13;;;11.62;84.26
61109;BME280;46995;55.740;37.402;2023-09-19T01:57:28;99979.25;;;11.58;84.60
61109;BME280;46995;55.740;37.402;2023-09-19T02:00:13;99980.59;;;11.52;84.40
61109;BME280;46995;55.740;37.402;2023-09-19T02:02:42;99976.63;;;11.46;84.55
61109;BME280;46995;55.740;37.402;2023-09-19T02:05:07;99973.69;;;11.40;84.64
61109;BME280;46995;55.740;37.402;2023-09-19T02:07:33;99982.97;;;11.34;84.68
61109;BME280;46995;55.740;37.402;2023-09-19T02:10:01;99974.41;;;11.31;85.03
61109;BME280;46995;55.740;37.402;2023-09-19T02:12:29;99978.41;;;11.25;84.93
61109;BME280;46995;55.740;37.402;2023-09-19T02:14:55;99974.22;;;11.23;85.15
61109;BME280;46995;55.740;37.402;2023-09-19T02:17:22;99976.41;;;11.18;85.13
61109;BME280;46995;55.740;37.402;2023-09-19T02:19:54;99971.38;;;11.15;85.28
61109;BME280;46995;55.740;37.402;2023-09-19T02:22:21;99966.31;;;11.12;85.30
61109;BME280;46995;55.740;37.402;2023-09-19T02:24:48;99962.94;;;11.10;85.32
61109;BME280;46995;55.740;37.402;2023-09-19T02:27:13;99962.94;;;11.10;85.56
61109;BME280;46995;55.740;37.402;2023-09-19T02:29:41;99969.91;;;11.11;85.52
61109;BME280;46995;55.740;37.402;2023-09-19T02:32:08;99975.94;;;11.13;85.51
61109;BME280;46995;55.740;37.402;2023-09-19T02:34:35;99970.53;;;11.14;85.74
61109;BME280;46995;55.740;37.402;2023-09-19T02:37:04;99962.44;;;11.16;85.59
61109;BME280;46995;55.740;37.402;2023-09-19T02:39:30;99966.78;;;11.17;85.54
61109;BME280;46995;55.740;37.402;2023-09-19T02:41:56;99959.44;;;11.20;85.78
61109;BME280;46995;55.740;37.402;2023-09-19T02:44:22;99962.53;;;11.25;85.68
61109;BME280;46995;55.740;37.402;2023-09-19T02:46:49;99956.91;;;11.30;85.81
61109;BME280;46995;55.740;37.402;2023-09-19T02:49:15;99953.03;;;11.34;85.60
61109;BME280;46995;55.740;37.402;2023-09-19T02:51:42;99954.31;;;11.39;85.63
61109;BME280;46995;55.740;37.402;2023-09-19T02:54:08;99958.28;;;11.45;85.52
61109;BME280;46995;55.740;37.402;2023-09-19T02:56:34;99960.53;;;11.50;85.38
61109;BME280;46995;55.740;37.402;2023-09-19T02:59:01;99959.19;;;11.55;85.62
61109;BME280;46995;55.740;37.402;2023-09-19T03:01:28;99961.56;;;11.58;85.47
61109;BME280;46995;55.740;37.402;2023-09-19T03:03:54;99960.22;;;11.64;85.26
61109;BME280;46995;55.740;37.402;2023-09-19T03:06:20;99962.63;;;11.67;85.19
61109;BME280;46995;55.740;37.402;2023-09-19T03:08:47;99955.94;;;11.72;85.13
61109;BME280;46995;55.740;37.402;2023-09-19T03:11:14;99962.72;;;11.76;85.15
61109;BME280;46995;55.740;37.402;2023-09-19T03:13:44;99958.97;;;11.79;85.18
61109;BME280;46995;55.740;37.402;2023-09-19T03:16:11;99962.19;;;11.82;85.12
61109;BME280;46995;55.740;37.402;2023-09-19T03:18:37;99967.09;;;11.87;84.92
61109;BME280;46995;55.740;37.402;2023-09-19T03:21:03;99970.31;;;11.91;85.00
61109;BME280;46995;55.740;37.402;2023-09-19T03:23:29;99972.69;;;11.94;84.95
61109;BME280;46995;55.740;37.402;2023-09-19T03:25:55;99968.84;;;11.98;84.86
61109;BME280;46995;55.740;37.402;2023-09-19T03:28:22;99967.59;;;12.02;84.55
61109;BME280;46995;55.740;37.402;2023-09-19T03:31:01;99963.72;;;12.06;84.75
61109;BME280;46995;55.740;37.402;2023-09-19T03:33:28;99963.47;;;12.09;84.59
61109;BME280;46995;55.740;37.402;2023-09-19T03:35:56;99957.91;;;12.12;84.65
61109;BME280;46995;55.740;37.402;2023-09-19T03:38:23;99958.63;;;12.14;84.48
61109;BME280;46995;55.740;37.402;2023-09-19T03:40:49;99962.69;;;12.18;84.31
61109;BME280;46995;55.740;37.402;2023-09-19T03:43:14;99957.38;;;12.18;84.52
61109;BME280;46995;55.740;37.402;2023-09-19T03:45:40;99961.44;;;12.22;84.23
61109;BME280;46995;55.740;37.402;2023-09-19T03:48:10;99958.50;;;12.25;84.38
61109;BME280;46995;55.740;37.402;2023-09-19T03:50:36;99960.19;;;12.26;84.19
61109;BME280;46995;55.740;37.402;2023-09-19T03:53:02;99958.28;;;12.28;84.17
61109;BME280;46995;55.740;37.402;2023-09-19T03:55:28;99961.59;;;12.30;84.22
61109;BME280;46995;55.740;37.402;2023-09-19T03:57:56;99956.06;;;12.33;83.97
61109;BME280;46995;55.740;37.402;2023-09-19T04:00:22;99954.13;;;12.35;84.04
61109;BME280;46995;55.740;37.402;2023-09-19T04:02:51;99959.16;;;12.38;83.96
61109;BME280;46995;55.740;37.402;2023-09-19T04:05:16;99951.91;;;12.40;83.83
61109;BME280;46995;55.740;37.402;2023-09-19T04:07:42;99961.41;;;12.43;83.85
61109;BME280;46995;55.740;37.402;2023-09-19T04:10:08;99953.31;;;12.44;83.77
61109;BME280;46995;55.740;37.402;2023-09-19T04:12:35;99953.75;;;12.49;83.75
61109;BME280;46995;55.740;37.402;2023-09-19T04:15:01;99947.22;;;12.53;83.60
61109;BME280;46995;55.740;37.402;2023-09-19T04:17:29;99945.97;;;12.57;83.48
61109;BME280;46995;55.740;37.402;2023-09-19T04:19:54;99948.38;;;12.60;83.54
61109;BME280;46995;55.740;37.402;2023-09-19T04:22:20;99940.25;;;12.62;83.19
61109;BME280;46995;55.740;37.402;2023-09-19T04:24:45;99925.06;;;12.64;83.19
61109;BME280;46995;55.740;37.402;2023-09-19T04:27:11;99920.63;;;12.64;83.25
61109;BME280;46995;55.740;37.402;2023-09-19T04:29:40;99922.97;;;12.67;83.16
61109;BME280;46995;55.740;37.402;2023-09-19T04:32:07;99918.41;;;12.69;83.04
61109;BME280;46995;55.740;37.402;2023-09-19T04:34:33;99917.28;;;12.72;83.11
61109;BME280;46995;55.740;37.402;2023-09-19T04:36:59;99913.53;;;12.74;82.96
61109;BME280;46995;55.740;37.402;2023-09-19T04:39:26;99918.53;;;12.78;82.88
61109;BME280;46995;55.740;37.402;2023-09-19T04:41:52;99913.13;;;12.79;82.95
61109;BME280;46995;55.740;37.402;2023-09-19T04:44:18;99927.63;;;12.85;82.86
61109;BME280;46995;55.740;37.402;2023-09-19T04:46:44;99923.03;;;12.87;82.77
61109;BME280;46995;55.740;37.402;2023-09-19T04:49:09;99926.25;;;12.90;82.63
61109;BME280;46995;55.740;37.402;2023-09-19T04:51:35;99927.78;;;12.93;82.59
61109;BME280;46995;55.740;37.402;2023-09-19T04:54:01;99918.59;;;12.97;82.40
61109;BME280;46995;55.740;37.402;2023-09-19T04:56:28;99928.78;;;13.01;82.42
61109;BME280;46995;55.740;37.402;2023-09-19T04:58:57;99917.63;;;13.07;82.27
61109;BME280;46995;55.740;37.402;2023-09-19T05:01:23;99923.38;;;13.12;82.14
61109;BME280;46995;55.740;37.402;2023-09-19T05:03:49;99920.31;;;13.17;81.98
61109;BME280;46995;55.740;37.402;2023-09-19T05:06:18;99916.69;;;13.18;81.65
61109;BME280;46995;55.740;37.402;2023-09-19T05:08:46;99911.66;;;13.15;81.70
61109;BME280;46995;55.740;37.402;2023-09-19T05:11:14;99909.38;;;13.10;81.72
61109;BME280;46995;55.740;37.402;2023-09-19T05:13:40;99908.13;;;13.05;81.58
61109;BME280;46995;55.740;37.402;2023-09-19T05:16:05;99906.31;;;12.96;81.60
61109;BME280;46995;55.740;37.402;2023-09-19T05:18:31;99906.84;;;12.90;81.68
61109;BME280;46995;55.740;37.402;2023-09-19T05:20:57;99914.09;;;12.88;81.78
61109;BME280;46995;55.740;37.402;2023-09-19T05:23:22;99903.78;;;12.85;82.01
61109;BME280;46995;55.740;37.402;2023-09-19T05:25:48;99899.19;;;12.87;82.17
61109;BME280;46995;55.740;37.402;2023-09-19T05:28:14;99892.63;;;12.91;82.29
61109;BME280;46995;55.740;37.402;2023-09-19T05:30:40;99895.69;;;12.96;82.17
61109;BME280;46995;55.740;37.402;2023-09-19T05:33:08;99896.00;;;13.02;82.20
61109;BME280;46995;55.740;37.402;2023-09-19T05:35:34;99899.75;;;13.09;82.13
61109;BME280;46995;55.740;37.402;2023-09-19T05:37:59;99896.44;;;13.17;82.01
61109;BME280;46995;55.740;37.402;2023-09-19T05:40:25;99893.25;;;13.23;81.83
61109;BME280;46995;55.740;37.402;2023-09-19T05:42:51;99898.00;;;13.29;81.61
61109;BME280;46995;55.740;37.402;2023-09-19T05:45:16;99895.59;;;13.36;81.55
61109;BME280;46995;55.740;37.402;2023-09-19T05:47:51;99891.53;;;13.41;81.37
61109;BME280;46995;55.740;37.402;2023-09-19T05:50:22;99896.28;;;13.47;81.22
61109;BME280;46995;55.740;37.402;2023-09-19T05:52:53;99901.69;;;13.55;81.00
61109;BME280;46995;55.740;37.402;2023-09-19T05:55:19;99900.88;;;13.65;80.87
61109;BME280;46995;55.740;37.402;2023-09-19T05:57:49;99897.66;;;13.71;80.62
61109;BME280;46995;55.740;37.402;2023-09-19T06:00:15;99897.91;;;13.77;80.40
61109;BME280;46995;55.740;37.402;2023-09-19T06:02:43;99890.34;;;13.82;80.28
61109;BME280;46995;55.740;37.402;2023-09-19T06:05:10;99890.59;;;13.89;80.16
61109;BME280;46995;55.740;37.402;2023-09-19T06:07:36;99891.00;;;13.94;80.09
61109;BME280;46995;55.740;37.402;2023-09-19T06:10:05;99890.31;;;14.02;79.90
61109;BME280;46995;55.740;37.402;2023-09-19T06:12:31;99888.19;;;14.05;79.76
61109;BME280;46995;55.740;37.402;2023-09-19T06:14:58;99883.56;;;14.07;79.54
61109;BME280;46995;55.740;37.402;2023-09-19T06:17:24;99883.97;;;14.12;79.55
61109;BME280;46995;55.740;37.402;2023-09-19T06:19:51;99882.09;;;14.22;79.43
61109;BME280;46995;55.740;37.402;2023-09-19T06:22:17;99882.91;;;14.32;79.36
61109;BME280;46995;55.740;37.402;2023-09-19T06:24:44;99882.75;;;14.44;78.98
61109;BME280;46995;55.740;37.402;2023-09-19T06:27:10;99878.59;;;14.59;78.89
61109;BME280;46995;55.740;37.402;2023-09-19T06:29:36;99893.13;;;14.82;78.61
61109;BME280;46995;55.740;37.402;2023-09-19T06:32:06;99886.75;;;15.10;78.19
61109;BME280;46995;55.740;37.402;2023-09-19T06:34:32;99895.13;;;15.33;77.58
61109;BME280;46995;55.740;37.402;2023-09-19T06:36:58;99889.91;;;15.49;77.16
61109;BME280;46995;55.740;37.402;2023-09-19T06:39:24;99900.19;;;15.62;76.74
61109;BME280;46995;55.740;37.402;2023-09-19T06:41:51;99891.28;;;15.71;76.19
61109;BME280;46995;55.740;37.402;2023-09-19T06:44:19;99883.34;;;15.79;76.10
61109;BME280;46995;55.740;37.402;2023-09-19T06:46:46;99886.75;;;15.89;75.64
61109;BME280;46995;55.740;37.402;2023-09-19T06:49:15;99895.09;;;15.94;75.63
61109;BME280;46995;55.740;37.402;2023-09-19T06:51:41;99893.09;;;15.96;75.14
61109;BME280;46995;55.740;37.402;2023-09-19T06:54:07;99885.28;;;15.95;75.04
61109;BME280;46995;55.740;37.402;2023-09-19T06:56:32;99891.44;;;15.95;75.26
61109;BME280;46995;55.740;37.402;2023-09-19T06:58:58;99890.00;;;16.01;75.22
61109;BME280;46995;55.740;37.402;2023-09-19T07:01:24;99885.16;;;16.04;75.02
61109;BME280;46995;55.740;37.402;2023-09-19T07:03:50;99882.84;;;16.09;75.14
61109;BME280;46995;55.740;37.402;2023-09-19T07:06:16;99885.41;;;16.19;74.92
61109;BME280;46995;55.740;37.402;2023-09-19T07:08:41;99888.13;;;16.27;74.75
61109;BME280;46995;55.740;37.402;2023-09-19T07:11:08;99883.81;;;16.34;74.54
61109;BME280;46995;55.740;37.402;2023-09-19T07:13:34;99868.34;;;16.38;74.26
61109;BME280;46995;55.740;37.402;2023-09-19T07:16:00;99870.53;;;16.50;74.33
61109;BME280;46995;55.740;37.402;2023-09-19T07:18:26;99873.28;;;16.67;73.94
61109;BME280;46995;55.740;37.402;2023-09-19T07:20:56;99875.84;;;16.84;73.42
61109;BME280;46995;55.740;37.402;2023-09-19T07:23:26;99877.84;;;16.90;72.36
61109;BME280;46995;55.740;37.402;2023-09-19T07:25:52;99881.03;;;16.94;72.61
61109;BME280;46995;55.740;37.402;2023-09-19T07:28:17;99875.00;;;16.92;72.45
61109;BME280;46995;55.740;37.402;2023-09-19T07:30:43;99862.47;;;16.76;72.72
61109;BME280;46995;55.740;37.402;2023-09-19T07:33:09;99859.22;;;16.57;72.87
61109;BME280;46995;55.740;37.402;2023-09-19T07:35:37;99860.00;;;16.41;73.20
61109;BME280;46995;55.740;37.402;2023-09-19T07:38:06;99869.78;;;16.24;73.58
61109;BME280;46995;55.740;37.402;2023-09-19T07:40:32;99875.59;;;16.20;73.59
61109;BME280;46995;55.740;37.402;2023-09-19T07:42:57;99870.09;;;16.21;73.68
61109;BME280;46995;55.740;37.402;2023-09-19T07:45:29;99855.31;;;16.35;73.93
61109;BME280;46995;55.740;37.402;2023-09-19T07:47:58;99849.72;;;16.54;73.60
61109;BME280;46995;55.740;37.402;2023-09-19T07:50:27;99857.47;;;16.73;73.41
61109;BME280;46995;55.740;37.402;2023-09-19T07:52:54;99857.81;;;16.86;72.50
61109;BME280;46995;55.740;37.402;2023-09-19T07:55:21;99850.84;;;17.02;72.08
61109;BME280;46995;55.740;37.402;2023-09-19T07:57:54;99860.19;;;17.22;71.80
61109;BME280;46995;55.740;37.402;2023-09-19T08:00:20;99860.72;;;17.42;71.40
61109;BME280;46995;55.740;37.402;2023-09-19T08:02:45;99855.88;;;17.53;71.04
61109;BME280;46995;55.740;37.402;2023-09-19T08:05:12;99852.84;;;17.56;70.63
61109;BME280;46995;55.740;37.402;2023-09-19T08:07:44;99842.84;;;17.58;70.89
61109;BME280;46995;55.740;37.402;2023-09-19T08:10:11;99846.88;;;17.62;70.65
61109;BME280;46995;55.740;37.402;2023-09-19T08:12:42;99852.84;;;17.64;70.61
61109;BME280;46995;55.740;37.402;2023-09-19T08:15:20;99841.16;;;17.65;70.46
61109;BME280;46995;55.740;37.402;2023-09-19T08:17:46;99842.00;;;17.66;70.64
61109;BME280;46995;55.740;37.402;2023-09-19T08:20:12;99835.00;;;17.65;70.17
61109;BME280;46995;55.740;37.402;2023-09-19T08:22:52;99840.97;;;17.59;70.15
61109;BME280;46995;55.740;37.402;2023-09-19T08:25:19;99830.81;;;17.54;70.02
61109;BME280;46995;55.740;37.402;2023-09-19T08:27:45;99823.47;;;17.48;70.09
61109;BME280;46995;55.740;37.402;2023-09-19T08:30:20;99832.19;;;17.42;69.69
61109;BME280;46995;55.740;37.402;2023-09-19T08:32:49;99826.19;;;17.32;70.34
61109;BME280;46995;55.740;37.402;2023-09-19T08:35:15;99820.16;;;17.22;70.46
61109;BME280;46995;55.740;37.402;2023-09-19T08:37:44;99813.84;;;17.15;70.54
61109;BME280;46995;55.740;37.402;2023-09-19T08:40:13;99810.00;;;17.09;70.82
61109;BME280;46995;55.740;37.402;2023-09-19T08:42:52;99813.50;;;17.10;70.80
61109;BME280;46995;55.740;37.402;2023-09-19T08:45:19;99809.84;;;17.11;71.08
61109;BME280;46995;55.740;37.402;2023-09-19T08:47:47;99808.66;;;17.13;70.97
61109;BME280;46995;55.740;37.402;2023-09-19T08:50:19;99807.97;;;17.19;70.99
61109;BME280;46995;55.740;37.402;2023-09-19T08:52:44;99810.81;;;17.26;71.02
61109;BME280;46995;55.740;37.402;2023-09-19T08:55:12;99810.16;;;17.32;70.78
61109;BME280;46995;55.740;37.402;2023-09-19T08:57:38;99820.47;;;17.43;70.42
61109;BME280;46995;55.740;37.402;2023-09-19T09:00:08;99809.28;;;17.56;70.38
61109;BME280;46995;55.740;37.402;2023-09-19T09:02:36;99814.13;;;17.68;70.31
61109;BME280;46995;55.740;37.402;2023-09-19T09:05:03;99814.41;;;17.82;69.80
61109;BME280;46995;55.740;37.402;2023-09-19T09:07:31;99828.09;;;17.95;69.62
61109;BME280;46995;55.740;37.402;2023-09-19T09:10:00;99829.38;;;18.07;69.52
61109;BME280;46995;55.740;37.402;2023-09-19T09:12:26;99823.13;;;18.23;69.17
61109;BME280;46995;55.740;37.402;2023-09-19T09:14:52;99817.88;;;18.37;69.08
61109;BME280;46995;55.740;37.402;2023-09-19T09:17:17;99809.66;;;18.47;68.78
61109;BME280;46995;55.740;37.402;2023-09-19T09:19:46;99800.59;;;18.56;68.20
61109;BME280;46995;55.740;37.402;2023-09-19T09:22:11;99801.34;;;18.65;68.29
61109;BME280;46995;55.740;37.402;2023-09-19T09:24:37;99793.28;;;18.73;68.28
61109;BME280;46995;55.740;37.402;2023-09-19T09:27:16;99796.38;;;18.84;67.70
61109;BME280;46995;55.740;37.402;2023-09-19T09:29:44;99798.16;;;18.92;67.55
61109;BME280;46995;55.740;37.402;2023-09-19T09:32:25;99796.16;;;18.94;67.60
61109;BME280;46995;55.740;37.402;2023-09-19T09:34:52;99796.16;;;18.94;67.54
61109;BME280;46995;55.740;37.402;2023-09-19T09:37:18;99805.06;;;18.86;67.20
61109;BME280;46995;55.740;37.402;2023-09-19T09:39:52;99786.97;;;18.66;67.48
61109;BME280;46995;55.740;37.402;2023-09-19T09:42:29;99789.13;;;18.39;67.88
61109;BME280;46995;55.740;37.402;2023-09-19T09:47:45;99780.56;;;18.13;68.84
61109;BME280;46995;55.740;37.402;2023-09-19T09:50:32;99780.22;;;18.16;68.82
61109;BME280;46995;55.740;37.402;2023-09-19T09:55:57;99782.16;;;18.53;68.43
61109;BME280;46995;55.740;37.402;2023-09-19T09:58:22;99783.91;;;18.77;68.23
61109;BME280;46995;55.740;37.402;2023-09-19T10:00:54;99777.72;;;18.99;67.86
61109;BME280;46995;55.740;37.402;2023-09-19T10:03:30;99775.31;;;19.04;67.00
61109;BME280;46995;55.740;37.402;2023-09-19T10:05:57;99772.69;;;18.96;66.34
61109;BME280;46995;55.740;37.402;2023-09-19T10:08:23;99770.81;;;18.82;67.50
61109;BME280;46995;55.740;37.402;2023-09-19T10:10:49;99763.88;;;18.73;68.22
61109;BME280;46995;55.740;37.402;2023-09-19T10:13:17;99753.88;;;18.67;68.25
61109;BME280;46995;55.740;37.402;2023-09-19T10:15:50;99762.44;;;18.62;68.44
61109;BME280;46995;55.740;37.402;2023-09-19T10:18:19;99764.28;;;18.53;68.65
61109;BME280;46995;55.740;37.402;2023-09-19T10:20:46;99753.66;;;18.45;68.91
61109;BME280;46995;55.740;37.402;2023-09-19T10:23:14;99762.69;;;18.44;69.45
61109;BME280;46995;55.740;37.402;2023-09-19T10:25:41;99753.66;;;18.45;69.09
61109;BME280;46995;55.740;37.402;2023-09-19T10:28:07;99744.63;;;18.46;68.82
61109;BME280;46995;55.740;37.402;2023-09-19T10:30:37;99747.94;;;18.48;68.97
61109;BME280;46995;55.740;37.402;2023-09-19T10:33:04;99745.25;;;18.48;69.06
61109;BME280;46995;55.740;37.402;2023-09-19T10:35:34;99737.94;;;18.42;68.54
61109;BME280;46995;55.740;37.402;2023-09-19T10:38:06;99739.13;;;18.40;68.77
61109;BME280;46995;55.740;37.402;2023-09-19T10:40:32;99730.13;;;18.41;69.14
61109;BME280;46995;55.740;37.402;2023-09-19T10:43:02;99737.59;;;18.45;69.32
61109;BME280;46995;55.740;37.402;2023-09-19T10:45:30;99747.94;;;18.48;69.14
61109;BME280;46995;55.740;37.402;2023-09-19T10:47:57;99742.88;;;18.53;69.01
61109;BME280;46995;55.740;37.402;2023-09-19T10:50:22;99735.38;;;18.57;68.92
61109;BME280;46995;55.740;37.402;2023-09-19T10:52:49;99732.50;;;18.58;68.92
61109;BME280;46995;55.740;37.402;2023-09-19T10:55:25;99733.84;;;18.63;68.67
61109;BME280;46995;55.740;37.402;2023-09-19T10:57:51;99739.66;;;18.66;68.35
61109;BME280;46995;55.740;37.402;2023-09-19T11:00:17;99738.44;;;18.69;68.65
61109;BME280;46995;55.740;37.402;2023-09-19T11:05:36;99727.41;;;18.72;68.05
61109;BME280;46995;55.740;37.402;2023-09-19T11:08:08;99727.53;;;18.78;68.25
61109;BME280;46995;55.740;37.402;2023-09-19T11:10:48;99727.28;;;18.88;68.48
61109;BME280;46995;55.740;37.402;2023-09-19T11:13:26;99721.22;;;18.94;68.33
61109;BME280;46995;55.740;37.402;2023-09-19T11:26:57;99710.13;;;19.49;67.30
61109;BME280;46995;55.740;37.402;2023-09-19T11:29:25;99706.53;;;19.57;67.05
61109;BME280;46995;55.740;37.402;2023-09-19T11:31:57;99705.41;;;19.66;67.08
61109;BME280;46995;55.740;37.402;2023-09-19T11:37:04;99696.16;;;19.83;66.88
61109;BME280;46995;55.740;37.402;2023-09-19T11:40:07;99699.47;;;19.85;66.58
61109;BME280;46995;55.740;37.402;2023-09-19T11:42:42;99689.22;;;19.88;66.41
61109;BME280;46995;55.740;37.402;2023-09-19T11:47:55;99676.69;;;19.96;66.54
61109;BME280;46995;55.740;37.402;2023-09-19T11:50:23;99679.38;;;19.96;66.59
61109;BME280;46995;55.740;37.402;2023-09-19T11:52:50;99678.38;;;19.97;66.85
61109;BME280;46995;55.740;37.402;2023-09-19T11:55:17;99676.13;;;20.00;66.88
61109;BME280;46995;55.740;37.402;2023-09-19T11:57:47;99669.19;;;20.06;66.83
61109;BME280;46995;55.740;37.402;2023-09-19T12:00:19;99665.00;;;20.18;66.96
61109;BME280;46995;55.740;37.402;2023-09-19T12:02:47;99659.13;;;20.29;66.76
61109;BME280;46995;55.740;37.402;2023-09-19T12:05:17;99665.97;;;20.32;67.68
61109;BME280;46995;55.740;37.402;2023-09-19T12:07:43;99663.75;;;20.35;66.67
61109;BME280;46995;55.740;37.402;2023-09-19T12:10:11;99660.50;;;20.40;66.55
61109;BME280;46995;55.740;37.402;2023-09-19T12:12:37;99650.09;;;20.79;66.49
61109;BME280;46995;55.740;37.402;2023-09-19T12:15:03;99647.81;;;21.79;65.45
61109;BME280;46995;55.740;37.402;2023-09-19T12:17:37;99643.06;;;23.01;63.61
61109;BME280;46995;55.740;37.402;2023-09-19T12:20:04;99638.44;;;24.30;60.82
61109;BME280;46995;55.740;37.402;2023-09-19T12:22:44;99634.50;;;25.44;58.87
61109;BME280;46995;55.740;37.402;2023-09-19T12:25:11;99635.63;;;26.21;57.14
61109;BME280;46995;55.740;37.402;2023-09-19T12:27:44;99632.13;;;26.73;56.64
61109;BME280;46995;55.740;37.402;2023-09-19T12:30:12;99630.63;;;27.01;55.29
61109;BME280;46995;55.740;37.402;2023-09-19T12:32:43;99627.31;;;26.98;54.67
61109;BME280;46995;55.740;37.402;2023-09-19T12:35:09;99624.44;;;26.82;54.70
61109;BME280;46995;55.740;37.402;2023-09-19T12:37:44;99620.47;;;26.84;54.06
61109;BME280;46995;55.740;37.402;2023-09-19T12:40:18;99615.63;;;27.21;54.37
61109;BME280;46995;55.740;37.402;2023-09-19T12:42:48;99612.13;;;27.72;54.01
61109;BME280;46995;55.740;37.402;2023-09-19T12:45:17;99608.16;;;28.20;52.43
61109;BME280;46995;55.740;37.402;2023-09-19T12:50:27;99608.22;;;27.97;52.25
61109;BME280;46995;55.740;37.402;2023-09-19T12:52:55;99611.13;;;27.27;51.82
61109;BME280;46995;55.740;37.402;2023-09-19T12:57:55;99604.97;;;26.08;53.70
61109;BME280;46995;55.740;37.402;2023-09-19T13:00:21;99604.19;;;26.20;53.37
61109;BME280;46995;55.740;37.402;2023-09-19T13:05:49;99608.03;;;26.12;52.84
61109;BME280;46995;55.740;37.402;2023-09-19T13:08:20;99600.16;;;25.81;51.53
61109;BME280;46995;55.740;37.402;2023-09-19T13:11:02;99594.25;;;25.36;56.21
61109;BME280;46995;55.740;37.402;2023-09-19T13:13:27;99594.00;;;24.76;54.65
61109;BME280;46995;55.740;37.402;2023-09-19T13:15:54;99584.44;;;24.30;54.60
61109;BME280;46995;55.740;37.402;2023-09-19T13:18:23;99589.63;;;23.94;55.36
61109;BME280;46995;55.740;37.402;2023-09-19T13:21:06;99592.06;;;23.71;55.67
61109;BME280;46995;55.740;37.402;2023-09-19T13:23:51;99586.13;;;23.42;56.42
61109;BME280;46995;55.740;37.402;2023-09-19T13:26:38;99583.34;;;23.11;57.00
61109;BME280;46995;55.740;37.402;2023-09-19T13:29:05;99597.31;;;22.82;56.70
61109;BME280;46995;55.740;37.402;2023-09-19T13:31:31;99591.69;;;22.57;57.51
61109;BME280;46995;55.740;37.402;2023-09-19T13:33:57;99586.72;;;22.34;58.02
61109;BME280;46995;55.740;37.402;2023-09-19T13:36:24;99594.56;;;22.16;58.60
61109;BME280;46995;55.740;37.402;2023-09-19T13:38:52;99583.16;;;22.01;58.92
61109;BME280;46995;55.740;37.402;2023-09-19T13:41:21;99575.84;;;21.88;58.98
61109;BME280;46995;55.740;37.402;2023-09-19T13:43:48;99571.28;;;21.75;59.17